Historyczne dane pomiarowe

Dodano dane terminowe – wersja testowa.

Dane z okresu 1951-2019

Wersja bazy: 1.34 [2019-03-16, lista zmian], aktualizacja planowana na 2019-04-15

Dane meteo z obszaru Polski uzyskane na podstawie danych udostępnionych przez Instytut Meteorologii i Gospodarki Wodnej – Państwowy Instytut Badawczy.

 

Wybierz Datę:    

       

TemperaturaWilgotnośćWiatrCiśnienieOpadyŚniegCzas trwania zjawisk
 Stacja t tx tn tng RH VA  wxwx mslp ppp RRR   cm mm wxwxwxwxwxwxwx
1994-08-14 16.1 20.0 13.3- 63.5- 4.0 4.0---- 0.0------------
1994-08-13 18.7 23.9 15.1- 86.5- 5.7 2.3---- 1.0------------
1994-08-12 17.5 20.7 14.6- 90.0- 7.0 2.0---- 4.5------------
1994-08-11 19.1 23.5 14.8- 92.3- 6.3 1.3---- 16.2------------
1994-08-10 19.6 28.0 13.3- 73.3- 2.7 1.3---- 0.0------------
1994-08-09 19.9 23.5 17.3- 92.3- 8.0 2.7---- 12.7------------
1994-08-08 21.0 29.4 17.5- 93.3- 7.0 1.0---- 4.9------------
1994-08-07 22.4 31.5 16.6- 74.5- 5.7 1.0---- 0.0------------
1994-08-06 22.7 31.3 14.2- 69.5- 0.7 2.3---- 0.4------------
1994-08-05 23.4 30.1 16.0- 69.3- 1.0 0.3---- 0.0------------
1994-08-04 21.7 28.4 16.6- 85.0- 4.0 2.7---- 3.0------------
1994-08-03 22.7 29.3 17.6- 80.0- 5.0 4.0---- 4.5------------
1994-08-02 25.1 32.9 16.3- 72.5- 2.3 3.0---- 0.0------------
1994-08-01 24.9 35.3 15.9- 67.5- 4.0 2.3---- 0.0------------
1994-07-31 25.2 34.8 15.9- 67.8- 0.7 3.0---- 0.0------------
1994-07-30 25.0 35.0 14.4- 64.8- 0.7 2.0---- 0.0------------
1994-07-29 22.6 34.8 14.0- 61.3- 0.3 2.0---- 0.0------------
1994-07-28 24.8 33.5 15.1- 63.5- 1.3 2.0---- 0.0------------
1994-07-27 25.1 33.5 14.8- 67.3- 2.3 1.7---- 0.0------------
1994-07-26 22.6 31.9 14.8- 69.8- 1.7 2.0---- 0.0------------
1994-07-25 22.4 31.1 14.0- 71.0- 2.7 2.3---- 0.0------------
1994-07-24 21.6 29.5 12.0- 66.5- 1.0 2.7---- 0.0------------
1994-07-23 20.2 27.9 10.0- 70.3- 1.0 1.7---- 0.0------------
1994-07-22 19.0 27.3 10.4- 70.0- 1.0 2.3---- 0.0------------
1994-07-21 18.1 25.7 8.2- 72.8- 1.0 1.0---- 0.0------------
1994-07-20 19.0 23.3 13.0- 68.5- 1.3 2.0---- 0.0------------
1994-07-19 19.3 24.5 13.0- 83.3- 6.7 1.7---- 0.0------------
1994-07-18 20.4 26.3 15.0- 88.5- 5.7 0.7---- 0.0------------
1994-07-17 21.5 28.5 14.0- 77.0- 5.3 1.7---- 30.8------------
1994-07-16 21.7 29.9 14.1- 79.8- 3.7 2.7---- 0.1------------
1994-07-15 20.8 27.9 12.4- 79.8- 4.0 2.0---- 0.0------------
1994-07-14 20.9 27.9 12.4- 77.8- 4.7 2.7---- 0.0------------
1994-07-13 20.3 26.9 10.4- 75.5- 3.7 1.0---- 0.0------------
1994-07-12 19.9 25.1 13.2- 78.5- 6.3 2.0---- 0.0------------
1994-07-11 17.6 23.0 12.5- 86.0- 5.7 1.7---- 0.7------------
1994-07-10 14.9 20.6 11.0- 96.0- 8.0 2.7---- 1.6------------
1994-07-09 14.8 19.3 10.0- 85.3- 6.3 2.3---- 16.9------------
1994-07-08 17.9 22.6 14.0- 73.0- 5.3 3.0---- 0.0------------
1994-07-07 18.0 26.1 10.2- 79.3- 5.3 2.7---- 2.4------------
1994-07-06 19.6 24.1 12.7- 71.0- 1.7 0.7---- 0.0------------
1994-07-05 19.8 26.9 12.0- 75.3- 5.0 2.0---- 2.2------------
1994-07-04 19.5 27.9 9.2- 70.3- 0.7 2.0---- 0.0------------
1994-07-03 18.9 26.6 9.0- 72.0- 0.3 1.0---- 0.0------------
1994-07-02 17.7 24.4 9.0- 75.3- 0.7 1.3---- 0.0------------
1994-07-01 19.8 23.5 16.8- 69.8- 3.3 0.7---- 0.0------------
1994-06-30 22.5 26.4 18.3- 87.3- 5.3 3.0---- 0.9------------
1994-06-29 22.9 30.5 16.1- 80.3- 1.3 1.7---- 0.0------------
1994-06-28 23.6 29.9 17.3- 78.3- 4.0 1.0---- 0.0------------
1994-06-27 25.0 31.4 16.9- 69.8- 3.3 3.0---- 0.0------------
1994-06-26 20.0 29.5 9.4- 65.8- 0.3 3.0---- 0.0------------
1994-06-25 15.0 24.0 4.9- 59.0- 0.0 2.7---- 0.0------------
1994-06-24 15.6 21.0 6.4- 51.3- 0.3 3.3---- 0.0------------
1994-06-23 18.3 23.6 16.1- 66.0- 5.0 5.0---- 0.0------------
1994-06-22 18.4 28.0 9.0- 70.8- 3.7 3.0---- 0.0------------
1994-06-21 15.6 21.0 8.2- 77.5- 2.3 0.3---- 0.0------------
1994-06-20 16.9 23.0 10.2- 78.3- 3.3 2.0---- 0.0------------
1994-06-19 18.0 24.9 11.1- 69.8- 4.3 4.0---- 0.0------------
1994-06-18 12.1 20.0 5.2- 79.3- 4.7 2.3---- 4.6------------
1994-06-17 12.3 15.5 9.4- 73.5- 6.0 6.0---- 0.0------------
1994-06-16 13.5 18.0 7.2- 77.5- 6.0 1.7---- 1.3------------
301.2 ms

 

Źródłem pochodzenia danych jest Instytut Meteorologii i Gospodarki Wodnej – Państwowy Instytut Badawczy. Dane Instytutu Meteorologii i Gospodarki Wodnej – Państwowego Instytutu Badawczego zostały przetworzone.

Dane źródłowe można odnaleźć na stronie https://dane.imgw.pl